sensor_id;sensor_type;location;lat;lon;timestamp;pressure;altitude;pressure_sealevel;temperature;humidity
64551;BME280;50945;44.472;-123.352;2023-04-07T00:00:09;99609.25;;;12.55;90.45
64551;BME280;50945;44.472;-123.352;2023-04-07T00:02:37;99605.28;;;12.51;90.74
64551;BME280;50945;44.472;-123.352;2023-04-07T00:05:03;99603.16;;;12.46;90.28
64551;BME280;50945;44.472;-123.352;2023-04-07T00:07:29;99604.66;;;12.42;90.23
64551;BME280;50945;44.472;-123.352;2023-04-07T00:09:56;99599.59;;;12.39;90.48
64551;BME280;50945;44.472;-123.352;2023-04-07T00:12:22;99603.22;;;12.33;90.50
64551;BME280;50945;44.472;-123.352;2023-04-07T00:14:48;99591.84;;;12.29;90.38
64551;BME280;50945;44.472;-123.352;2023-04-07T00:17:14;99603.22;;;12.26;89.94
64551;BME280;50945;44.472;-123.352;2023-04-07T00:19:40;99601.72;;;12.24;90.40
64551;BME280;50945;44.472;-123.352;2023-04-07T00:22:08;99599.44;;;12.21;90.58
64551;BME280;50945;44.472;-123.352;2023-04-07T00:24:35;99599.03;;;12.17;90.54
64551;BME280;50945;44.472;-123.352;2023-04-07T00:27:01;99594.19;;;12.12;90.31
64551;BME280;50945;44.472;-123.352;2023-04-07T00:29:27;99604.94;;;12.07;91.04
64551;BME280;50945;44.472;-123.352;2023-04-07T00:31:54;99599.03;;;12.04;91.11
64551;BME280;50945;44.472;-123.352;2023-04-07T00:34:20;99607.88;;;11.99;91.22
64551;BME280;50945;44.472;-123.352;2023-04-07T00:36:46;99606.84;;;11.93;91.16
64551;BME280;50945;44.472;-123.352;2023-04-07T00:39:17;99613.78;;;11.89;91.61
64551;BME280;50945;44.472;-123.352;2023-04-07T00:41:44;99615.25;;;11.85;91.88
64551;BME280;50945;44.472;-123.352;2023-04-07T00:44:11;99616.72;;;11.81;91.91
64551;BME280;50945;44.472;-123.352;2023-04-07T00:46:38;99612.72;;;11.77;92.17
64551;BME280;50945;44.472;-123.352;2023-04-07T00:49:06;99612.28;;;11.73;92.21
64551;BME280;50945;44.472;-123.352;2023-04-07T00:51:33;99608.09;;;11.71;92.69
64551;BME280;50945;44.472;-123.352;2023-04-07T00:53:59;99616.72;;;11.68;92.72
64551;BME280;50945;44.472;-123.352;2023-04-07T00:56:26;99621.78;;;11.64;92.93
64551;BME280;50945;44.472;-123.352;2023-04-07T00:58:53;99625.34;;;11.58;93.27
64551;BME280;50945;44.472;-123.352;2023-04-07T01:01:26;99626.59;;;11.55;93.55
64551;BME280;50945;44.472;-123.352;2023-04-07T01:04:08;99629.75;;;11.52;93.83
64551;BME280;50945;44.472;-123.352;2023-04-07T01:06:39;99626.38;;;11.50;94.08
64551;BME280;50945;44.472;-123.352;2023-04-07T01:09:26;99632.28;;;11.47;94.10
64551;BME280;50945;44.472;-123.352;2023-04-07T01:14:34;99636.06;;;11.39;94.53
64551;BME280;50945;44.472;-123.352;2023-04-07T01:17:07;99632.69;;;11.37;95.10
64551;BME280;50945;44.472;-123.352;2023-04-07T01:19:47;99640.25;;;11.35;95.27
64551;BME280;50945;44.472;-123.352;2023-04-07T01:22:31;99639.84;;;11.32;95.96
64551;BME280;50945;44.472;-123.352;2023-04-07T01:30:37;99645.06;;;11.20;96.77
64551;BME280;50945;44.472;-123.352;2023-04-07T01:33:04;99646.53;;;11.16;97.17
64551;BME280;50945;44.472;-123.352;2023-04-07T01:35:33;99644.19;;;11.13;97.28
64551;BME280;50945;44.472;-123.352;2023-04-07T01:38:02;99642.31;;;11.13;97.57
64551;BME280;50945;44.472;-123.352;2023-04-07T01:40:29;99650.72;;;11.12;97.62
64551;BME280;50945;44.472;-123.352;2023-04-07T01:42:58;99646.31;;;11.11;98.13
64551;BME280;50945;44.472;-123.352;2023-04-07T01:45:25;99649.03;;;11.11;98.31
64551;BME280;50945;44.472;-123.352;2023-04-07T01:47:53;99647.34;;;11.10;98.53
64551;BME280;50945;44.472;-123.352;2023-04-07T01:50:20;99641.03;;;11.09;98.41
64551;BME280;50945;44.472;-123.352;2023-04-07T01:52:47;99648.16;;;11.10;98.19
64551;BME280;50945;44.472;-123.352;2023-04-07T01:55:14;99647.53;;;11.08;97.95
64551;BME280;50945;44.472;-123.352;2023-04-07T01:57:40;99656.81;;;11.07;98.47
64551;BME280;50945;44.472;-123.352;2023-04-07T02:00:07;99657.22;;;11.04;98.17
64551;BME280;50945;44.472;-123.352;2023-04-07T02:02:35;99667.50;;;11.02;98.25
64551;BME280;50945;44.472;-123.352;2023-04-07T02:05:09;99650.69;;;10.98;98.34
64551;BME280;50945;44.472;-123.352;2023-04-07T02:07:57;99659.06;;;10.97;98.22
64551;BME280;50945;44.472;-123.352;2023-04-07T02:10:26;99664.13;;;10.93;98.42
64551;BME280;50945;44.472;-123.352;2023-04-07T02:12:54;99658.84;;;10.92;98.31
64551;BME280;50945;44.472;-123.352;2023-04-07T02:15:22;99656.50;;;10.89;98.58
64551;BME280;50945;44.472;-123.352;2023-04-07T02:17:52;99660.72;;;10.84;98.69
64551;BME280;50945;44.472;-123.352;2023-04-07T02:20:19;99667.63;;;10.80;98.70
64551;BME280;50945;44.472;-123.352;2023-04-07T02:22:46;99657.09;;;10.77;98.94
64551;BME280;50945;44.472;-123.352;2023-04-07T02:27:48;99656.44;;;10.69;98.79
64551;BME280;50945;44.472;-123.352;2023-04-07T02:30:15;99652.63;;;10.63;100.00
64551;BME280;50945;44.472;-123.352;2023-04-07T02:32:41;99656.16;;;10.57;99.83
64551;BME280;50945;44.472;-123.352;2023-04-07T02:35:07;99652.97;;;10.53;99.87
64551;BME280;50945;44.472;-123.352;2023-04-07T02:37:33;99651.69;;;10.49;99.85
64551;BME280;50945;44.472;-123.352;2023-04-07T02:40:00;99654.81;;;10.46;99.50
64551;BME280;50945;44.472;-123.352;2023-04-07T02:42:26;99653.34;;;10.43;99.52
64551;BME280;50945;44.472;-123.352;2023-04-07T02:44:55;99643.00;;;10.39;100.00
64551;BME280;50945;44.472;-123.352;2023-04-07T02:47:21;99651.63;;;10.36;99.80
64551;BME280;50945;44.472;-123.352;2023-04-07T02:49:47;99652.22;;;10.31;100.00
64551;BME280;50945;44.472;-123.352;2023-04-07T02:52:14;99649.00;;;10.27;100.00
64551;BME280;50945;44.472;-123.352;2023-04-07T02:54:42;99653.19;;;10.23;100.00
64551;BME280;50945;44.472;-123.352;2023-04-07T02:57:08;99657.16;;;10.21;100.00
64551;BME280;50945;44.472;-123.352;2023-04-07T02:59:35;99658.41;;;10.18;100.00
64551;BME280;50945;44.472;-123.352;2023-04-07T03:02:01;99653.16;;;10.17;100.00
64551;BME280;50945;44.472;-123.352;2023-04-07T03:04:30;99658.81;;;10.15;100.00
64551;BME280;50945;44.472;-123.352;2023-04-07T03:06:58;99657.31;;;10.13;100.00
64551;BME280;50945;44.472;-123.352;2023-04-07T03:09:24;99659.38;;;10.11;100.00
64551;BME280;50945;44.472;-123.352;2023-04-07T03:11:50;99668.84;;;10.08;100.00
64551;BME280;50945;44.472;-123.352;2023-04-07T03:14:17;99670.72;;;10.07;100.00
64551;BME280;50945;44.472;-123.352;2023-04-07T03:16:44;99664.59;;;10.05;100.00
64551;BME280;50945;44.472;-123.352;2023-04-07T03:19:10;99677.41;;;10.05;100.00
64551;BME280;50945;44.472;-123.352;2023-04-07T03:21:37;99680.34;;;10.03;100.00
64551;BME280;50945;44.472;-123.352;2023-04-07T03:24:05;99684.97;;;10.03;100.00
64551;BME280;50945;44.472;-123.352;2023-04-07T03:26:31;99688.72;;;10.02;100.00
64551;BME280;50945;44.472;-123.352;2023-04-07T03:28:59;99686.00;;;10.02;100.00
64551;BME280;50945;44.472;-123.352;2023-04-07T03:31:26;99694.19;;;10.02;100.00
64551;BME280;50945;44.472;-123.352;2023-04-07T03:33:52;99699.66;;;10.02;100.00
64551;BME280;50945;44.472;-123.352;2023-04-07T03:36:18;99699.88;;;10.00;100.00
64551;BME280;50945;44.472;-123.352;2023-04-07T03:38:46;99695.44;;;9.99;100.00
64551;BME280;50945;44.472;-123.352;2023-04-07T03:41:13;99707.38;;;9.98;100.00
64551;BME280;50945;44.472;-123.352;2023-04-07T03:43:40;99698.56;;;9.96;100.00
64551;BME280;50945;44.472;-123.352;2023-04-07T03:46:07;99699.63;;;9.95;100.00
64551;BME280;50945;44.472;-123.352;2023-04-07T03:48:33;99706.09;;;9.94;100.00
64551;BME280;50945;44.472;-123.352;2023-04-07T03:50:59;99711.75;;;9.93;100.00
64551;BME280;50945;44.472;-123.352;2023-04-07T03:53:25;99708.38;;;9.90;100.00
64551;BME280;50945;44.472;-123.352;2023-04-07T03:55:51;99728.56;;;9.89;100.00
64551;BME280;50945;44.472;-123.352;2023-04-07T03:58:18;99729.78;;;9.87;100.00
64551;BME280;50945;44.472;-123.352;2023-04-07T04:00:44;99724.50;;;9.85;100.00
64551;BME280;50945;44.472;-123.352;2023-04-07T04:03:10;99731.84;;;9.85;100.00
64551;BME280;50945;44.472;-123.352;2023-04-07T04:05:37;99737.50;;;9.83;100.00
64551;BME280;50945;44.472;-123.352;2023-04-07T04:08:06;99744.00;;;9.82;100.00
64551;BME280;50945;44.472;-123.352;2023-04-07T04:10:32;99747.78;;;9.81;100.00
64551;BME280;50945;44.472;-123.352;2023-04-07T04:12:59;99745.25;;;9.80;100.00
64551;BME280;50945;44.472;-123.352;2023-04-07T04:15:26;99746.25;;;9.79;100.00
64551;BME280;50945;44.472;-123.352;2023-04-07T04:17:53;99748.34;;;9.77;100.00
64551;BME280;50945;44.472;-123.352;2023-04-07T04:20:19;99754.00;;;9.75;100.00
64551;BME280;50945;44.472;-123.352;2023-04-07T04:22:47;99748.53;;;9.75;100.00
64551;BME280;50945;44.472;-123.352;2023-04-07T04:25:13;99746.03;;;9.74;100.00
64551;BME280;50945;44.472;-123.352;2023-04-07T04:27:40;99751.69;;;9.72;100.00
64551;BME280;50945;44.472;-123.352;2023-04-07T04:30:07;99754.59;;;9.70;100.00
64551;BME280;50945;44.472;-123.352;2023-04-07T04:32:33;99758.34;;;9.69;100.00
64551;BME280;50945;44.472;-123.352;2023-04-07T04:34:59;99767.59;;;9.68;100.00
64551;BME280;50945;44.472;-123.352;2023-04-07T04:37:26;99769.28;;;9.69;100.00
64551;BME280;50945;44.472;-123.352;2023-04-07T04:39:52;99767.19;;;9.71;100.00
64551;BME280;50945;44.472;-123.352;2023-04-07T04:42:21;99774.53;;;9.71;100.00
64551;BME280;50945;44.472;-123.352;2023-04-07T04:44:47;99775.59;;;9.70;100.00
64551;BME280;50945;44.472;-123.352;2023-04-07T04:47:13;99778.09;;;9.71;100.00
64551;BME280;50945;44.472;-123.352;2023-04-07T04:49:41;99775.59;;;9.70;100.00
64551;BME280;50945;44.472;-123.352;2023-04-07T04:52:07;99775.59;;;9.70;100.00
64551;BME280;50945;44.472;-123.352;2023-04-07T04:54:33;99785.66;;;9.69;100.00
64551;BME280;50945;44.472;-123.352;2023-04-07T04:57:01;99784.81;;;9.69;100.00
64551;BME280;50945;44.472;-123.352;2023-04-07T04:59:27;99786.50;;;9.70;100.00
64551;BME280;50945;44.472;-123.352;2023-04-07T05:01:54;99790.06;;;9.70;100.00
64551;BME280;50945;44.472;-123.352;2023-04-07T05:04:20;99785.66;;;9.69;100.00
64551;BME280;50945;44.472;-123.352;2023-04-07T05:06:46;99783.97;;;9.68;100.00
64551;BME280;50945;44.472;-123.352;2023-04-07T05:09:12;99783.97;;;9.68;100.00
64551;BME280;50945;44.472;-123.352;2023-04-07T05:11:40;99797.81;;;9.67;100.00
64551;BME280;50945;44.472;-123.352;2023-04-07T05:14:06;99800.72;;;9.65;100.00
64551;BME280;50945;44.472;-123.352;2023-04-07T05:16:34;99791.88;;;9.63;100.00
64551;BME280;50945;44.472;-123.352;2023-04-07T05:19:01;99803.81;;;9.62;100.00
64551;BME280;50945;44.472;-123.352;2023-04-07T05:21:27;99799.44;;;9.61;100.00
64551;BME280;50945;44.472;-123.352;2023-04-07T05:27:03;99805.91;;;9.60;100.00
64551;BME280;50945;44.472;-123.352;2023-04-07T05:29:29;99815.13;;;9.59;100.00
64551;BME280;50945;44.472;-123.352;2023-04-07T05:31:55;99811.56;;;9.59;100.00
64551;BME280;50945;44.472;-123.352;2023-04-07T05:34:28;99812.59;;;9.58;100.00
64551;BME280;50945;44.472;-123.352;2023-04-07T05:36:55;99819.09;;;9.57;100.00
64551;BME280;50945;44.472;-123.352;2023-04-07T05:39:21;99821.81;;;9.57;100.00
64551;BME280;50945;44.472;-123.352;2023-04-07T05:41:47;99814.66;;;9.56;100.00
64551;BME280;50945;44.472;-123.352;2023-04-07T05:44:13;99826.63;;;9.55;100.00
64551;BME280;50945;44.472;-123.352;2023-04-07T05:46:39;99817.59;;;9.54;100.00
64551;BME280;50945;44.472;-123.352;2023-04-07T05:49:06;99814.00;;;9.54;100.00
64551;BME280;50945;44.472;-123.352;2023-04-07T05:51:32;99813.16;;;9.53;100.00
64551;BME280;50945;44.472;-123.352;2023-04-07T05:54:01;99810.63;;;9.51;100.00
64551;BME280;50945;44.472;-123.352;2023-04-07T05:56:30;99809.13;;;9.49;100.00
64551;BME280;50945;44.472;-123.352;2023-04-07T05:58:57;99820.91;;;9.49;100.00
64551;BME280;50945;44.472;-123.352;2023-04-07T06:01:25;99819.41;;;9.47;100.00
64551;BME280;50945;44.472;-123.352;2023-04-07T06:03:52;99816.00;;;9.45;100.00
64551;BME280;50945;44.472;-123.352;2023-04-07T06:06:18;99820.81;;;9.43;100.00
64551;BME280;50945;44.472;-123.352;2023-04-07T06:08:44;99819.13;;;9.42;100.00
64551;BME280;50945;44.472;-123.352;2023-04-07T06:11:10;99820.16;;;9.41;100.00
64551;BME280;50945;44.472;-123.352;2023-04-07T06:13:37;99815.06;;;9.38;100.00
64551;BME280;50945;44.472;-123.352;2023-04-07T06:16:04;99815.94;;;9.38;100.00
64551;BME280;50945;44.472;-123.352;2023-04-07T06:18:31;99819.69;;;9.37;100.00
64551;BME280;50945;44.472;-123.352;2023-04-07T06:20:57;99819.88;;;9.36;100.00
64551;BME280;50945;44.472;-123.352;2023-04-07T06:23:23;99814.59;;;9.34;100.00
64551;BME280;50945;44.472;-123.352;2023-04-07T06:25:49;99822.97;;;9.32;100.00
64551;BME280;50945;44.472;-123.352;2023-04-07T06:28:18;99818.56;;;9.31;100.00
64551;BME280;50945;44.472;-123.352;2023-04-07T06:30:44;99825.91;;;9.31;100.00
64551;BME280;50945;44.472;-123.352;2023-04-07T06:33:11;99818.94;;;9.28;100.00
64551;BME280;50945;44.472;-123.352;2023-04-07T06:35:39;99818.28;;;9.26;100.00
64551;BME280;50945;44.472;-123.352;2023-04-07T06:38:06;99828.34;;;9.26;100.00
64551;BME280;50945;44.472;-123.352;2023-04-07T06:40:32;99822.03;;;9.25;100.00
64551;BME280;50945;44.472;-123.352;2023-04-07T06:42:58;99821.38;;;9.23;100.00
64551;BME280;50945;44.472;-123.352;2023-04-07T06:45:26;99818.00;;;9.21;100.00
64551;BME280;50945;44.472;-123.352;2023-04-07T06:47:52;99820.72;;;9.21;100.00
64551;BME280;50945;44.472;-123.352;2023-04-07T06:50:18;99827.44;;;9.19;100.00
64551;BME280;50945;44.472;-123.352;2023-04-07T06:52:47;99821.09;;;9.18;100.00
64551;BME280;50945;44.472;-123.352;2023-04-07T06:55:13;99833.06;;;9.17;100.00
64551;BME280;50945;44.472;-123.352;2023-04-07T06:57:39;99831.53;;;9.14;100.00
64551;BME280;50945;44.472;-123.352;2023-04-07T07:00:06;99836.16;;;9.14;100.00
64551;BME280;50945;44.472;-123.352;2023-04-07T07:02:35;99824.59;;;9.12;100.00
64551;BME280;50945;44.472;-123.352;2023-04-07T07:05:01;99833.78;;;9.11;100.00
64551;BME280;50945;44.472;-123.352;2023-04-07T07:07:29;99839.25;;;9.11;100.00
64551;BME280;50945;44.472;-123.352;2023-04-07T07:09:56;99832.13;;;9.10;100.00
64551;BME280;50945;44.472;-123.352;2023-04-07T07:12:22;99838.59;;;9.09;100.00
64551;BME280;50945;44.472;-123.352;2023-04-07T07:14:48;99836.06;;;9.07;100.00
64551;BME280;50945;44.472;-123.352;2023-04-07T07:17:14;99834.38;;;9.06;100.00
64551;BME280;50945;44.472;-123.352;2023-04-07T07:19:41;99842.75;;;9.05;100.00
64551;BME280;50945;44.472;-123.352;2023-04-07T07:22:08;99836.63;;;9.03;100.00
64551;BME280;50945;44.472;-123.352;2023-04-07T07:24:34;99835.78;;;9.02;100.00
64551;BME280;50945;44.472;-123.352;2023-04-07T07:27:00;99819.63;;;9.01;100.00
64551;BME280;50945;44.472;-123.352;2023-04-07T07:29:27;99829.66;;;9.00;100.00
64551;BME280;50945;44.472;-123.352;2023-04-07T07:31:54;99826.09;;;9.00;100.00
64551;BME280;50945;44.472;-123.352;2023-04-07T07:34:21;99821.47;;;9.00;100.00
64551;BME280;50945;44.472;-123.352;2023-04-07T07:36:47;99808.91;;;8.99;100.00
64551;BME280;50945;44.472;-123.352;2023-04-07T07:39:13;99820.81;;;8.98;100.00
64551;BME280;50945;44.472;-123.352;2023-04-07T07:41:39;99820.19;;;8.96;100.00
64551;BME280;50945;44.472;-123.352;2023-04-07T07:44:06;99822.06;;;8.96;100.00
64551;BME280;50945;44.472;-123.352;2023-04-07T07:46:32;99824.97;;;8.94;100.00
64551;BME280;50945;44.472;-123.352;2023-04-07T07:48:58;99831.44;;;8.93;100.00
64551;BME280;50945;44.472;-123.352;2023-04-07T07:51:25;99837.09;;;8.91;100.00
64551;BME280;50945;44.472;-123.352;2023-04-07T07:53:52;99834.53;;;8.90;100.00
64551;BME280;50945;44.472;-123.352;2023-04-07T07:56:18;99838.31;;;8.89;100.00
64551;BME280;50945;44.472;-123.352;2023-04-07T07:58:45;99837.47;;;8.88;100.00
64551;BME280;50945;44.472;-123.352;2023-04-07T08:01:11;99842.06;;;8.88;100.00
64551;BME280;50945;44.472;-123.352;2023-04-07T08:03:37;99839.34;;;8.88;100.00
64551;BME280;50945;44.472;-123.352;2023-04-07T08:06:03;99828.59;;;8.86;100.00
64551;BME280;50945;44.472;-123.352;2023-04-07T08:08:30;99827.97;;;8.84;100.00
64551;BME280;50945;44.472;-123.352;2023-04-07T08:10:56;99839.25;;;8.81;100.00
64551;BME280;50945;44.472;-123.352;2023-04-07T08:13:22;99840.63;;;8.77;100.00
64551;BME280;50945;44.472;-123.352;2023-04-07T08:15:48;99846.28;;;8.75;100.00
64551;BME280;50945;44.472;-123.352;2023-04-07T08:18:15;99849.88;;;8.76;100.00
64551;BME280;50945;44.472;-123.352;2023-04-07T08:20:41;99851.34;;;8.79;100.00
64551;BME280;50945;44.472;-123.352;2023-04-07T08:23:07;99851.19;;;8.80;100.00
64551;BME280;50945;44.472;-123.352;2023-04-07T08:25:33;99851.00;;;8.82;100.00
64551;BME280;50945;44.472;-123.352;2023-04-07T08:28:00;99855.41;;;8.83;100.00
64551;BME280;50945;44.472;-123.352;2023-04-07T08:30:26;99849.09;;;8.82;100.00
64551;BME280;50945;44.472;-123.352;2023-04-07T08:32:52;99851.66;;;8.84;100.00
64551;BME280;50945;44.472;-123.352;2023-04-07T08:35:18;99855.03;;;8.86;100.00
64551;BME280;50945;44.472;-123.352;2023-04-07T08:37:45;99858.81;;;8.85;100.00
64551;BME280;50945;44.472;-123.352;2023-04-07T08:40:11;99864.63;;;8.82;100.00
64551;BME280;50945;44.472;-123.352;2023-04-07T08:42:41;99854.84;;;8.72;100.00
64551;BME280;50945;44.472;-123.352;2023-04-07T08:45:09;99853.66;;;8.67;100.00
64551;BME280;50945;44.472;-123.352;2023-04-07T08:47:36;99847.38;;;8.66;100.00
64551;BME280;50945;44.472;-123.352;2023-04-07T08:50:08;99863.91;;;8.65;100.00
64551;BME280;50945;44.472;-123.352;2023-04-07T08:55:13;99857.81;;;8.63;100.00
64551;BME280;50945;44.472;-123.352;2023-04-07T08:57:40;99851.53;;;8.62;100.00
64551;BME280;50945;44.472;-123.352;2023-04-07T09:00:07;99861.09;;;8.58;100.00
64551;BME280;50945;44.472;-123.352;2023-04-07T09:02:37;99858.75;;;8.55;100.00
64551;BME280;50945;44.472;-123.352;2023-04-07T09:05:07;99856.00;;;8.55;100.00
64551;BME280;50945;44.472;-123.352;2023-04-07T09:07:38;99866.06;;;8.54;100.00
64551;BME280;50945;44.472;-123.352;2023-04-07T09:10:10;99867.09;;;8.53;100.00
64551;BME280;50945;44.472;-123.352;2023-04-07T09:12:37;99862.84;;;8.51;100.00
64551;BME280;50945;44.472;-123.352;2023-04-07T09:15:05;99862.00;;;8.50;100.00
64551;BME280;50945;44.472;-123.352;2023-04-07T09:17:32;99864.72;;;8.50;100.00
64551;BME280;50945;44.472;-123.352;2023-04-07T09:19:59;99861.16;;;8.50;100.00
64551;BME280;50945;44.472;-123.352;2023-04-07T09:22:41;99864.72;;;8.50;100.00
64551;BME280;50945;44.472;-123.352;2023-04-07T09:25:22;99866.78;;;8.48;100.00
64551;BME280;50945;44.472;-123.352;2023-04-07T09:27:54;99860.50;;;8.48;100.00
64551;BME280;50945;44.472;-123.352;2023-04-07T09:30:21;99866.97;;;8.47;100.00
64551;BME280;50945;44.472;-123.352;2023-04-07T09:32:47;99854.41;;;8.46;100.00
64551;BME280;50945;44.472;-123.352;2023-04-07T09:35:13;99858.13;;;8.45;100.00
64551;BME280;50945;44.472;-123.352;2023-04-07T09:37:40;99856.63;;;8.42;100.00
64551;BME280;50945;44.472;-123.352;2023-04-07T09:40:07;99851.34;;;8.41;100.00
64551;BME280;50945;44.472;-123.352;2023-04-07T09:42:33;99845.03;;;8.40;100.00
64551;BME280;50945;44.472;-123.352;2023-04-07T09:45:02;99856.13;;;8.38;100.00
64551;BME280;50945;44.472;-123.352;2023-04-07T09:47:30;99847.97;;;8.38;100.00
64551;BME280;50945;44.472;-123.352;2023-04-07T09:49:57;99851.69;;;8.37;100.00
64551;BME280;50945;44.472;-123.352;2023-04-07T09:52:52;99846.06;;;8.39;100.00
64551;BME280;50945;44.472;-123.352;2023-04-07T09:55:22;99854.25;;;8.39;100.00
64551;BME280;50945;44.472;-123.352;2023-04-07T09:57:50;99850.69;;;8.38;100.00
64551;BME280;50945;44.472;-123.352;2023-04-07T10:00:16;99850.69;;;8.38;100.00
64551;BME280;50945;44.472;-123.352;2023-04-07T10:02:43;99843.53;;;8.37;100.00
64551;BME280;50945;44.472;-123.352;2023-04-07T10:05:10;99841.63;;;8.38;100.00
64551;BME280;50945;44.472;-123.352;2023-04-07T10:07:36;99839.97;;;8.37;100.00
64551;BME280;50945;44.472;-123.352;2023-04-07T10:10:03;99843.53;;;8.37;100.00
64551;BME280;50945;44.472;-123.352;2023-04-07T10:12:33;99839.97;;;8.37;100.00
64551;BME280;50945;44.472;-123.352;2023-04-07T10:15:00;99835.34;;;8.37;100.00
64551;BME280;50945;44.472;-123.352;2023-04-07T10:17:27;99839.09;;;8.36;100.00
64551;BME280;50945;44.472;-123.352;2023-04-07T10:19:56;99841.81;;;8.36;100.00
64551;BME280;50945;44.472;-123.352;2023-04-07T10:22:24;99840.97;;;8.36;100.00
64551;BME280;50945;44.472;-123.352;2023-04-07T10:25:07;99833.84;;;8.35;100.00
64551;BME280;50945;44.472;-123.352;2023-04-07T10:27:41;99843.03;;;8.34;100.00
64551;BME280;50945;44.472;-123.352;2023-04-07T10:30:25;99836.75;;;8.33;100.00
64551;BME280;50945;44.472;-123.352;2023-04-07T10:32:53;99848.50;;;8.34;100.00
64551;BME280;50945;44.472;-123.352;2023-04-07T10:35:20;99842.22;;;8.33;100.00
64551;BME280;50945;44.472;-123.352;2023-04-07T10:40:39;99841.16;;;8.34;100.00
64551;BME280;50945;44.472;-123.352;2023-04-07T10:43:06;99850.19;;;8.35;100.00
64551;BME280;50945;44.472;-123.352;2023-04-07T10:48:17;99849.50;;;8.33;100.00
64551;BME280;50945;44.472;-123.352;2023-04-07T10:51:10;99846.97;;;8.31;100.00
64551;BME280;50945;44.472;-123.352;2023-04-07T10:53:33;99845.47;;;8.29;100.00
64551;BME280;50945;44.472;-123.352;2023-04-07T10:56:03;99847.34;;;8.28;100.00
64551;BME280;50945;44.472;-123.352;2023-04-07T10:58:29;99839.19;;;8.28;100.00
64551;BME280;50945;44.472;-123.352;2023-04-07T11:03:30;99829.31;;;8.27;100.00
64551;BME280;50945;44.472;-123.352;2023-04-07T11:08:40;99830.53;;;8.25;100.00
64551;BME280;50945;44.472;-123.352;2023-04-07T11:11:08;99835.31;;;8.23;100.00
64551;BME280;50945;44.472;-123.352;2023-04-07T11:13:45;99831.72;;;8.22;100.00
64551;BME280;50945;44.472;-123.352;2023-04-07T11:16:13;99832.78;;;8.21;100.00
64551;BME280;50945;44.472;-123.352;2023-04-07T11:18:39;99826.47;;;8.21;100.00
64551;BME280;50945;44.472;-123.352;2023-04-07T11:21:06;99835.66;;;8.19;100.00
64551;BME280;50945;44.472;-123.352;2023-04-07T11:23:44;99834.84;;;8.19;100.00
64551;BME280;50945;44.472;-123.352;2023-04-07T11:26:13;99835.84;;;8.18;100.00
64551;BME280;50945;44.472;-123.352;2023-04-07T11:28:53;99831.41;;;8.17;100.00
64551;BME280;50945;44.472;-123.352;2023-04-07T11:31:26;99840.81;;;8.14;100.00
64551;BME280;50945;44.472;-123.352;2023-04-07T11:33:57;99828.22;;;8.13;100.00
64551;BME280;50945;44.472;-123.352;2023-04-07T11:36:32;99829.25;;;8.12;100.00
64551;BME280;50945;44.472;-123.352;2023-04-07T11:38:59;99828.44;;;8.12;100.00
64551;BME280;50945;44.472;-123.352;2023-04-07T11:41:27;99829.44;;;8.11;100.00
64551;BME280;50945;44.472;-123.352;2023-04-07T11:46:30;99830.84;;;8.07;100.00
64551;BME280;50945;44.472;-123.352;2023-04-07T11:49:11;99836.47;;;8.05;100.00
64551;BME280;50945;44.472;-123.352;2023-04-07T11:51:37;99839.19;;;8.05;100.00
64551;BME280;50945;44.472;-123.352;2023-04-07T11:54:04;99842.75;;;8.06;100.00
64551;BME280;50945;44.472;-123.352;2023-04-07T11:56:44;99842.75;;;8.06;100.00
64551;BME280;50945;44.472;-123.352;2023-04-07T11:59:23;99840.69;;;8.08;100.00
64551;BME280;50945;44.472;-123.352;2023-04-07T12:01:51;99838.78;;;8.08;100.00
64551;BME280;50945;44.472;-123.352;2023-04-07T12:04:18;99843.22;;;8.09;100.00
64551;BME280;50945;44.472;-123.352;2023-04-07T12:06:46;99842.38;;;8.09;100.00
64551;BME280;50945;44.472;-123.352;2023-04-07T12:09:30;99842.56;;;8.07;100.00
64551;BME280;50945;44.472;-123.352;2023-04-07T12:11:57;99844.44;;;8.07;100.00
64551;BME280;50945;44.472;-123.352;2023-04-07T12:14:25;99836.47;;;8.05;100.00
64551;BME280;50945;44.472;-123.352;2023-04-07T12:16:52;99843.75;;;8.05;100.00
64551;BME280;50945;44.472;-123.352;2023-04-07T12:19:22;99844.63;;;8.05;100.00
64551;BME280;50945;44.472;-123.352;2023-04-07T12:21:48;99842.09;;;8.04;100.00
64551;BME280;50945;44.472;-123.352;2023-04-07T12:24:15;99847.53;;;8.04;100.00
64551;BME280;50945;44.472;-123.352;2023-04-07T12:26:41;99853.81;;;8.04;100.00
64551;BME280;50945;44.472;-123.352;2023-04-07T12:29:07;99853.81;;;8.04;100.00
64551;BME280;50945;44.472;-123.352;2023-04-07T12:31:34;99847.69;;;8.02;100.00
64551;BME280;50945;44.472;-123.352;2023-04-07T12:34:01;99847.69;;;8.02;100.00
64551;BME280;50945;44.472;-123.352;2023-04-07T12:36:27;99854.16;;;8.01;100.00
64551;BME280;50945;44.472;-123.352;2023-04-07T12:38:55;99853.31;;;8.00;100.00
64551;BME280;50945;44.472;-123.352;2023-04-07T12:41:22;99853.50;;;7.99;100.00
64551;BME280;50945;44.472;-123.352;2023-04-07T12:43:48;99846.38;;;7.98;100.00
64551;BME280;50945;44.472;-123.352;2023-04-07T12:46:14;99844.84;;;7.95;100.00
64551;BME280;50945;44.472;-123.352;2023-04-07T12:48:41;99844.19;;;7.93;100.00
64551;BME280;50945;44.472;-123.352;2023-04-07T12:51:07;99845.22;;;7.92;100.00
64551;BME280;50945;44.472;-123.352;2023-04-07T12:53:33;99842.50;;;7.92;100.00
64551;BME280;50945;44.472;-123.352;2023-04-07T12:55:59;99843.53;;;7.91;100.00
64551;BME280;50945;44.472;-123.352;2023-04-07T12:58:26;99834.53;;;7.91;100.00
64551;BME280;50945;44.472;-123.352;2023-04-07T13:00:52;99830.09;;;7.90;100.00
64551;BME280;50945;44.472;-123.352;2023-04-07T13:03:18;99838.44;;;7.88;100.00